createdAt,value
2023-03-25T00:02:47.756Z,11.52
2023-03-25T00:05:29.944Z,11.57
2023-03-25T00:08:18.169Z,11.59
2023-03-25T00:11:00.887Z,11.64
2023-03-25T00:13:49.286Z,11.66
2023-03-25T00:16:30.008Z,11.57
2023-03-25T00:19:21.297Z,11.48
2023-03-25T00:22:08.891Z,11.24
2023-03-25T00:24:57.907Z,11.08
2023-03-25T00:27:47.069Z,10.96
2023-03-25T00:30:28.897Z,10.88
2023-03-25T00:33:18.783Z,10.76
2023-03-25T00:36:05.942Z,10.75
2023-03-25T00:38:57.174Z,10.70
2023-03-25T00:41:38.907Z,10.67
2023-03-25T00:44:27.104Z,10.67
2023-03-25T00:47:08.931Z,10.73
2023-03-25T00:49:57.002Z,10.76
2023-03-25T00:52:39.829Z,10.86
2023-03-25T00:55:34.888Z,10.87
2023-03-25T00:58:16.950Z,10.95
2023-03-25T01:01:04.911Z,10.98
2023-03-25T01:03:57.958Z,10.99
2023-03-25T01:06:41.820Z,10.98
2023-03-25T01:09:32.033Z,10.95
2023-03-25T01:12:13.852Z,10.93
2023-03-25T01:15:02.034Z,10.96
2023-03-25T01:17:43.888Z,10.99
2023-03-25T01:20:32.029Z,10.96
2023-03-25T01:23:19.786Z,10.97
2023-03-25T01:26:09.845Z,10.95
2023-03-25T01:28:57.987Z,10.91
2023-03-25T01:31:40.855Z,10.89
2023-03-25T01:34:28.998Z,10.87
2023-03-25T01:37:10.765Z,10.89
2023-03-25T01:39:59.021Z,10.84
2023-03-25T01:42:41.744Z,10.86
2023-03-25T01:45:33.925Z,10.82
2023-03-25T01:48:21.792Z,10.80
2023-03-25T01:51:24.766Z,10.82
2023-03-25T01:54:07.816Z,10.80
2023-03-25T01:56:56.805Z,10.81
2023-03-25T01:59:46.986Z,10.80
2023-03-25T02:02:31.731Z,10.77
2023-03-25T02:05:26.509Z,10.73
2023-03-25T02:08:12.742Z,10.75
2023-03-25T02:11:00.929Z,10.77
2023-03-25T02:13:44.749Z,10.82
2023-03-25T02:16:51.693Z,10.82
2023-03-25T02:20:13.885Z,10.76
2023-03-25T02:24:09.761Z,10.74
2023-03-25T02:27:40.725Z,10.72
2023-03-25T02:30:42.947Z,10.77
2023-03-25T02:33:54.702Z,10.76
2023-03-25T02:37:27.942Z,10.77
2023-03-25T02:40:20.742Z,10.76
2023-03-25T02:43:13.921Z,10.75
2023-03-25T02:46:00.667Z,10.71
2023-03-25T02:48:56.145Z,10.70
2023-03-25T02:51:40.659Z,10.70
2023-03-25T02:54:31.723Z,10.67
2023-03-25T02:57:15.869Z,10.66
2023-03-25T03:00:05.663Z,10.60
2023-03-25T03:02:50.803Z,10.62
2023-03-25T03:05:40.632Z,10.56
2023-03-25T03:08:47.886Z,10.54
2023-03-25T03:11:39.687Z,10.51
2023-03-25T03:14:52.607Z,10.47
2023-03-25T03:17:44.266Z,10.23
2023-03-25T03:20:39.623Z,10.24
2023-03-25T03:23:37.115Z,10.35
2023-03-25T03:26:28.776Z,10.46
2023-03-25T03:29:21.872Z,10.45
2023-03-25T03:32:08.738Z,10.41
2023-03-25T03:35:00.878Z,10.48
2023-03-25T03:37:45.575Z,10.48
2023-03-25T03:40:36.786Z,10.54
2023-03-25T03:43:23.574Z,10.56
2023-03-25T03:46:22.670Z,10.61
2023-03-25T03:49:17.292Z,10.62
2023-03-25T03:52:08.015Z,10.61
2023-03-25T03:55:02.832Z,10.63
2023-03-25T03:57:49.651Z,10.68
2023-03-25T04:00:44.780Z,10.65
2023-03-25T04:03:30.624Z,10.69
2023-03-25T04:06:26.797Z,10.71
2023-03-25T04:09:13.571Z,10.72
2023-03-25T04:12:06.731Z,10.73
2023-03-25T04:14:48.535Z,10.71
2023-03-25T04:17:44.596Z,10.72
2023-03-25T04:20:29.996Z,10.75
2023-03-25T04:23:22.503Z,10.78
2023-03-25T04:26:10.705Z,10.80
2023-03-25T04:28:52.587Z,10.86
2023-03-25T04:31:50.119Z,10.92
2023-03-25T04:34:33.541Z,10.94
2023-03-25T04:37:24.022Z,10.97
2023-03-25T04:40:07.470Z,11.01
2023-03-25T04:43:03.524Z,11.00
2023-03-25T04:45:50.022Z,11.04
2023-03-25T04:48:41.528Z,11.07
2023-03-25T04:51:30.348Z,11.11
2023-03-25T04:54:15.939Z,11.13
2023-03-25T04:57:08.710Z,11.17
2023-03-25T04:59:50.549Z,11.14
2023-03-25T05:02:39.089Z,11.14
2023-03-25T05:05:25.447Z,11.15
2023-03-25T05:08:21.498Z,11.14
2023-03-25T05:11:03.435Z,11.19
2023-03-25T05:13:53.554Z,11.20
2023-03-25T05:16:41.699Z,11.15
2023-03-25T05:19:25.688Z,11.08
2023-03-25T05:22:21.412Z,11.09
2023-03-25T05:25:11.440Z,11.02
2023-03-25T05:27:52.656Z,11.02
2023-03-25T05:30:45.466Z,11.00
2023-03-25T05:33:33.500Z,11.00
2023-03-25T05:36:16.427Z,11.00
2023-03-25T05:39:04.450Z,11.05
2023-03-25T05:41:55.766Z,11.07
2023-03-25T05:44:37.396Z,11.07
2023-03-25T05:47:29.192Z,11.05
2023-03-25T05:50:11.371Z,11.08
2023-03-25T05:53:00.116Z,11.05
2023-03-25T05:55:41.353Z,11.09
2023-03-25T05:58:29.626Z,11.10
2023-03-25T06:01:21.543Z,11.14
2023-03-25T06:04:16.402Z,11.18
2023-03-25T06:06:59.599Z,11.20
2023-03-25T06:09:52.333Z,11.30
2023-03-25T06:12:38.780Z,11.31
2023-03-25T06:15:40.337Z,11.30
2023-03-25T06:18:24.689Z,11.25
2023-03-25T06:21:15.334Z,11.17
2023-03-25T06:24:12.333Z,11.12
2023-03-25T06:26:54.167Z,11.12
2023-03-25T06:29:43.312Z,11.08
2023-03-25T06:32:32.078Z,11.08
2023-03-25T06:35:16.460Z,11.10
2023-03-25T06:38:05.511Z,11.11
2023-03-25T06:41:06.327Z,11.12
2023-03-25T06:43:55.568Z,11.14
2023-03-25T06:47:00.300Z,11.13
2023-03-25T06:49:57.314Z,11.17
2023-03-25T06:52:38.539Z,11.16
2023-03-25T06:55:28.272Z,11.21
2023-03-25T06:58:09.521Z,11.26
2023-03-25T07:01:01.286Z,11.30
2023-03-25T07:03:43.496Z,11.37
2023-03-25T07:06:32.294Z,11.43
2023-03-25T07:09:13.509Z,11.43
2023-03-25T07:12:03.277Z,11.52
2023-03-25T07:14:53.267Z,11.59
2023-03-25T07:17:44.536Z,11.61
2023-03-25T07:20:27.281Z,11.68
2023-03-25T07:23:22.251Z,11.65
2023-03-25T07:26:10.230Z,11.68
2023-03-25T07:28:53.435Z,11.71
2023-03-25T07:31:42.305Z,11.71
2023-03-25T07:34:23.415Z,11.72
2023-03-25T07:37:12.262Z,11.77
2023-03-25T07:40:00.202Z,11.79
2023-03-25T07:42:48.461Z,11.84
2023-03-25T07:45:44.630Z,11.90
2023-03-25T07:48:32.453Z,11.96
2023-03-25T07:51:15.186Z,12.02
2023-03-25T07:54:05.566Z,12.05
2023-03-25T07:56:47.264Z,12.11
2023-03-25T07:59:35.380Z,12.16
2023-03-25T08:02:20.262Z,12.22
2023-03-25T08:05:15.153Z,12.22
2023-03-25T08:08:00.170Z,12.28
2023-03-25T08:10:49.236Z,12.33
2023-03-25T08:13:38.356Z,12.36
2023-03-25T08:16:21.216Z,12.42
2023-03-25T08:19:11.120Z,12.48
2023-03-25T08:22:06.167Z,12.49
2023-03-25T08:24:54.424Z,12.50
2023-03-25T08:27:36.154Z,12.49
2023-03-25T08:30:24.183Z,12.57
2023-03-25T08:33:05.417Z,12.61
2023-03-25T08:35:57.171Z,12.66
2023-03-25T08:38:38.352Z,12.73
2023-03-25T08:41:26.272Z,12.84
2023-03-25T08:44:07.335Z,12.89
2023-03-25T08:46:55.122Z,12.89
2023-03-25T08:49:36.353Z,12.94
2023-03-25T08:52:26.078Z,13.00
2023-03-25T08:55:09.794Z,13.09
2023-03-25T08:57:59.083Z,13.18
2023-03-25T09:00:47.092Z,13.24
2023-03-25T09:03:29.000Z,13.34
2023-03-25T09:06:19.053Z,13.38
2023-03-25T09:09:09.459Z,13.40
2023-03-25T09:11:50.090Z,13.37
2023-03-25T09:14:38.338Z,13.37
2023-03-25T09:17:20.082Z,13.33
2023-03-25T09:20:10.868Z,13.29
2023-03-25T09:22:59.040Z,13.34
2023-03-25T09:25:43.132Z,13.42
2023-03-25T09:28:31.028Z,13.53
2023-03-25T09:31:19.078Z,13.63
2023-03-25T09:34:07.655Z,13.72
2023-03-25T09:36:49.088Z,13.87
2023-03-25T09:39:37.248Z,13.86
2023-03-25T09:42:39.194Z,13.89
2023-03-25T09:45:38.214Z,13.98
2023-03-25T09:48:32.033Z,14.10
2023-03-25T09:51:33.032Z,14.19
2023-03-25T09:54:22.606Z,14.26
2023-03-25T09:57:16.110Z,14.46
2023-03-25T10:00:07.519Z,14.48
2023-03-25T10:02:54.061Z,14.60
2023-03-25T10:05:56.255Z,14.57
2023-03-25T10:08:47.984Z,14.52
2023-03-25T10:11:44.176Z,14.39
2023-03-25T10:14:33.050Z,14.43
2023-03-25T10:17:35.964Z,14.48
2023-03-25T10:20:20.233Z,14.44
2023-03-25T10:23:18.956Z,14.57
2023-03-25T10:26:07.746Z,14.57
2023-03-25T10:29:03.952Z,14.66
2023-03-25T10:31:59.236Z,14.69
2023-03-25T10:34:45.933Z,14.73
2023-03-25T10:37:39.533Z,14.78
2023-03-25T10:40:27.968Z,14.68
2023-03-25T10:43:32.923Z,14.66
2023-03-25T10:46:22.487Z,14.62
2023-03-25T10:49:09.989Z,14.59
2023-03-25T10:52:00.200Z,14.60
2023-03-25T10:54:44.928Z,14.65
2023-03-25T10:57:37.024Z,14.69
2023-03-25T11:00:24.990Z,14.60
2023-03-25T11:03:17.266Z,14.57
2023-03-25T11:06:00.966Z,14.53
2023-03-25T11:11:56.118Z,14.66
2023-03-25T11:14:46.150Z,14.77
2023-03-25T11:17:29.014Z,14.78
2023-03-25T11:20:26.326Z,14.76
2023-03-25T11:23:14.400Z,14.78
2023-03-25T11:26:04.104Z,15.00
2023-03-25T11:28:49.426Z,15.17
2023-03-25T11:31:42.159Z,15.63
2023-03-25T11:34:35.215Z,16.17
2023-03-25T11:37:18.854Z,16.53
2023-03-25T11:40:09.130Z,16.52
2023-03-25T11:43:01.415Z,16.80
2023-03-25T11:45:46.158Z,17.09
2023-03-25T11:48:40.466Z,16.79
2023-03-25T11:51:30.469Z,16.53
2023-03-25T11:54:38.589Z,16.33
2023-03-25T11:57:30.110Z,16.12
2023-03-25T12:00:34.051Z,16.22
2023-03-25T12:03:27.425Z,16.25
2023-03-25T12:06:26.115Z,16.27
2023-03-25T12:09:08.327Z,16.27
2023-03-25T12:12:06.040Z,16.25
2023-03-25T12:14:56.578Z,16.53
2023-03-25T12:17:59.101Z,16.84
2023-03-25T12:20:49.564Z,16.79
2023-03-25T12:23:52.052Z,16.92
2023-03-25T12:26:41.662Z,16.98
2023-03-25T12:29:44.004Z,17.02
2023-03-25T12:32:43.011Z,17.14
2023-03-25T12:35:42.417Z,17.08
2023-03-25T12:38:46.000Z,17.10
2023-03-25T12:41:42.209Z,17.04
2023-03-25T12:44:40.050Z,17.19
2023-03-25T12:47:32.214Z,17.40
2023-03-25T12:50:25.957Z,17.32
2023-03-25T12:53:41.085Z,17.22
2023-03-25T12:56:47.200Z,17.31
2023-03-25T12:59:46.128Z,17.72
2023-03-25T13:02:58.528Z,17.70
2023-03-25T13:05:46.942Z,17.64
2023-03-25T13:08:40.177Z,17.48
2023-03-25T13:11:30.939Z,17.20
2023-03-25T13:14:21.168Z,17.17
2023-03-25T13:17:15.928Z,16.99
2023-03-25T13:20:02.160Z,16.67
2023-03-25T13:23:00.936Z,16.71
2023-03-25T13:25:59.002Z,16.73
2023-03-25T13:28:46.888Z,16.78
2023-03-25T13:31:42.089Z,16.73
2023-03-25T13:34:33.389Z,16.63
2023-03-25T13:37:28.955Z,16.62
2023-03-25T13:40:25.341Z,16.34
2023-03-25T13:43:20.928Z,16.14
2023-03-25T13:46:14.208Z,15.99
2023-03-25T13:49:00.861Z,16.13
2023-03-25T13:51:49.186Z,16.14
2023-03-25T13:54:37.910Z,15.99
2023-03-25T13:57:52.935Z,15.77
2023-03-25T14:01:02.249Z,15.68
2023-03-25T14:04:16.974Z,15.50
2023-03-25T14:07:28.137Z,15.26
2023-03-25T14:10:41.912Z,15.04
2023-03-25T14:13:34.065Z,14.88
2023-03-25T14:16:17.960Z,14.78
2023-03-25T14:19:18.837Z,14.75
2023-03-25T14:22:00.997Z,14.55
2023-03-25T14:24:51.885Z,14.56
2023-03-25T14:27:36.503Z,14.50
2023-03-25T14:30:34.864Z,14.46
2023-03-25T14:33:26.085Z,14.39
2023-03-25T14:36:08.901Z,14.35
2023-03-25T14:39:02.067Z,14.03
2023-03-25T14:42:03.808Z,14.00
2023-03-25T14:44:54.673Z,14.04
2023-03-25T14:47:38.807Z,13.96
2023-03-25T14:50:41.131Z,13.89
2023-03-25T14:53:23.824Z,13.81
2023-03-25T14:56:15.039Z,13.69
2023-03-25T14:59:00.840Z,13.60
2023-03-25T15:01:58.807Z,13.56
2023-03-25T15:04:41.513Z,13.47
2023-03-25T15:07:34.797Z,13.28
2023-03-25T15:10:37.661Z,13.18
2023-03-25T15:13:24.778Z,13.05
2023-03-25T15:16:24.079Z,13.05
2023-03-25T15:19:10.765Z,13.06
2023-03-25T15:22:33.744Z,12.99
2023-03-25T15:25:20.026Z,12.94
2023-03-25T15:28:22.744Z,12.99
2023-03-25T15:31:21.172Z,12.82
2023-03-25T15:34:15.764Z,12.73
2023-03-25T15:37:45.542Z,12.65
2023-03-25T15:40:48.841Z,12.54
2023-03-25T15:44:00.830Z,12.41
2023-03-25T15:47:23.064Z,12.35
2023-03-25T15:50:41.724Z,12.32
2023-03-25T15:53:49.941Z,12.26
2023-03-25T15:56:41.827Z,12.26
2023-03-25T15:59:44.706Z,12.19
2023-03-25T16:02:37.225Z,12.17
2023-03-25T16:05:28.733Z,12.14
2023-03-25T16:08:22.916Z,12.04
2023-03-25T16:11:29.742Z,12.08
2023-03-25T16:14:20.938Z,12.08
2023-03-25T16:17:04.703Z,12.07
2023-03-25T16:20:03.724Z,12.00
2023-03-25T16:22:50.043Z,12.01
2023-03-25T16:25:45.646Z,12.04
2023-03-25T16:28:38.883Z,12.04
2023-03-25T16:31:39.619Z,11.96
2023-03-25T16:34:28.894Z,12.04
2023-03-25T16:37:10.651Z,12.06
2023-03-25T16:40:00.901Z,12.08
2023-03-25T16:42:43.870Z,12.01
2023-03-25T16:45:32.889Z,12.01
2023-03-25T16:48:16.616Z,12.00
2023-03-25T16:51:08.610Z,11.85
2023-03-25T16:53:50.925Z,11.88
2023-03-25T16:56:40.721Z,11.89
2023-03-25T16:59:29.865Z,11.80
2023-03-25T17:02:33.670Z,11.76
2023-03-25T17:05:23.817Z,11.63
2023-03-25T17:08:16.616Z,11.60
2023-03-25T17:11:13.579Z,11.58
2023-03-25T17:14:06.619Z,11.56
2023-03-25T17:16:56.618Z,11.54
2023-03-25T17:19:51.090Z,11.55
2023-03-25T17:22:35.621Z,11.50
2023-03-25T17:25:33.516Z,11.51
2023-03-25T17:28:39.678Z,11.45
2023-03-25T17:31:36.498Z,11.32
2023-03-25T17:34:22.533Z,11.40
2023-03-25T17:37:10.790Z,11.39
2023-03-25T17:39:56.523Z,11.37
2023-03-25T17:42:47.101Z,11.33
2023-03-25T17:45:29.564Z,11.29
2023-03-25T17:48:23.514Z,11.29
2023-03-25T17:51:09.042Z,11.21
2023-03-25T17:53:57.505Z,11.20
2023-03-25T17:56:39.585Z,11.18
2023-03-25T17:59:29.542Z,11.14
2023-03-25T18:02:17.789Z,11.16
2023-03-25T18:05:05.498Z,11.06
2023-03-25T18:07:48.724Z,11.07
2023-03-25T18:10:43.498Z,11.05
2023-03-25T18:13:39.471Z,11.00
2023-03-25T18:16:23.219Z,10.90
2023-03-25T18:19:11.554Z,10.87
2023-03-25T18:22:06.800Z,10.87
2023-03-25T18:24:56.512Z,10.87
2023-03-25T18:27:45.652Z,10.93
2023-03-25T18:30:32.498Z,10.90
2023-03-25T18:33:21.672Z,10.89
2023-03-25T18:36:05.466Z,10.70
2023-03-25T18:38:54.516Z,10.62
2023-03-25T18:41:37.703Z,10.59
2023-03-25T18:44:25.426Z,10.55
2023-03-25T18:47:06.768Z,10.56
2023-03-25T18:49:55.623Z,10.57
2023-03-25T18:52:36.879Z,10.64
2023-03-25T18:55:25.449Z,10.55
2023-03-25T18:58:10.386Z,10.42
2023-03-25T19:01:01.513Z,10.40
2023-03-25T19:03:42.735Z,10.27
2023-03-25T19:06:30.451Z,10.30
2023-03-25T19:09:18.538Z,10.15
2023-03-25T19:12:06.652Z,10.22
2023-03-25T19:14:49.424Z,10.20
2023-03-25T19:17:37.735Z,10.22
2023-03-25T19:20:24.431Z,10.25
2023-03-25T19:23:12.796Z,10.26
2023-03-25T19:25:56.458Z,10.26
2023-03-25T19:28:44.712Z,10.29
2023-03-25T19:31:27.377Z,10.24
2023-03-25T19:34:23.388Z,10.33
2023-03-25T19:37:08.050Z,10.30
2023-03-25T19:39:55.339Z,10.33
2023-03-25T19:42:43.551Z,10.28
2023-03-25T19:45:27.315Z,10.26
2023-03-25T19:48:16.638Z,10.27
2023-03-25T19:51:01.410Z,10.22
2023-03-25T19:53:49.537Z,10.27
2023-03-25T19:56:31.326Z,10.27
2023-03-25T19:59:19.661Z,10.33
2023-03-25T20:02:01.442Z,10.23
2023-03-25T20:04:57.328Z,10.20
2023-03-25T20:07:39.634Z,10.18
2023-03-25T20:10:30.372Z,10.27
2023-03-25T20:13:18.610Z,10.31
2023-03-25T20:16:00.323Z,10.34
2023-03-25T20:18:49.087Z,10.38
2023-03-25T20:21:32.368Z,10.43
2023-03-25T20:24:20.596Z,10.33
2023-03-25T20:27:02.334Z,10.25
2023-03-25T20:29:50.534Z,10.24
2023-03-25T20:32:40.519Z,10.32
2023-03-25T20:35:31.422Z,10.39
2023-03-25T20:38:14.783Z,10.46
2023-03-25T20:41:02.237Z,10.54
2023-03-25T20:43:43.446Z,10.61
2023-03-25T20:46:35.361Z,10.63
2023-03-25T20:49:17.506Z,10.57
2023-03-25T20:52:06.297Z,10.52
2023-03-25T20:54:50.782Z,10.45
2023-03-25T20:57:38.253Z,10.50
2023-03-25T21:00:20.612Z,10.57
2023-03-25T21:03:11.307Z,10.63
2023-03-25T21:06:07.105Z,10.67
2023-03-25T21:09:01.130Z,10.76
2023-03-25T21:12:03.191Z,10.82
2023-03-25T21:14:51.403Z,10.87
2023-03-25T21:17:34.277Z,10.83
2023-03-25T21:20:24.090Z,10.79
2023-03-25T21:23:06.258Z,10.81
2023-03-25T21:26:07.180Z,10.82
2023-03-25T21:28:50.469Z,10.83
2023-03-25T21:31:39.164Z,10.70
2023-03-25T21:34:27.531Z,10.66
2023-03-25T21:37:10.163Z,10.63
2023-03-25T21:39:59.610Z,10.64
2023-03-25T21:42:41.523Z,10.64
2023-03-25T21:45:34.456Z,10.63
2023-03-25T21:48:16.183Z,10.63
2023-03-25T21:51:04.784Z,10.56
2023-03-25T21:53:50.250Z,10.59
2023-03-25T21:56:40.176Z,10.60
2023-03-25T21:59:22.131Z,10.65
2023-03-25T22:02:12.142Z,10.65
2023-03-25T22:04:54.506Z,10.67
2023-03-25T22:07:42.210Z,10.70
2023-03-25T22:10:23.319Z,10.70
2023-03-25T22:13:11.091Z,10.68
2023-03-25T22:15:52.498Z,10.60
2023-03-25T22:18:42.124Z,10.56
2023-03-25T22:21:25.329Z,10.54
2023-03-25T22:24:16.980Z,10.56
2023-03-25T22:27:05.067Z,10.56
2023-03-25T22:29:47.218Z,10.59
2023-03-25T22:32:35.136Z,10.63
2023-03-25T22:35:28.865Z,10.64
2023-03-25T22:38:12.072Z,10.57
2023-03-25T22:41:00.354Z,10.62
2023-03-25T22:43:42.079Z,10.57
2023-03-25T22:46:32.395Z,10.55
2023-03-25T22:49:15.111Z,10.56
2023-03-25T22:52:04.346Z,10.59
2023-03-25T22:54:46.164Z,10.50
2023-03-25T22:57:34.046Z,10.47
2023-03-25T23:00:18.277Z,10.45
2023-03-25T23:03:06.179Z,10.37
2023-03-25T23:05:47.416Z,10.30
2023-03-25T23:08:39.086Z,10.35
2023-03-25T23:11:29.262Z,10.39
2023-03-25T23:14:14.074Z,10.51
2023-03-25T23:17:02.229Z,10.54
2023-03-25T23:19:44.014Z,10.62
2023-03-25T23:22:39.002Z,10.62
2023-03-25T23:25:22.188Z,10.66
2023-03-25T23:28:12.029Z,10.67
2023-03-25T23:31:00.479Z,10.74
2023-03-25T23:33:41.989Z,10.71
2023-03-25T23:36:31.359Z,10.68
2023-03-25T23:39:13.970Z,10.74
2023-03-25T23:42:04.280Z,10.69
2023-03-25T23:44:45.994Z,10.72
2023-03-25T23:47:34.249Z,10.72
2023-03-25T23:50:16.992Z,10.80
2023-03-25T23:53:07.946Z,10.75
2023-03-25T23:55:53.352Z,10.72
2023-03-25T23:58:43.030Z,10.73
